sensor_id;sensor_type;location;lat;lon;timestamp;temperature;humidity
9760;DHT22;4919;48.792;9.202;2023-05-07T00:00:03;8.60;1.00
9760;DHT22;4919;48.792;9.202;2023-05-07T00:02:48;8.60;1.00
9760;DHT22;4919;48.792;9.202;2023-05-07T00:05:33;8.60;1.00
9760;DHT22;4919;48.792;9.202;2023-05-07T00:08:18;8.50;1.00
9760;DHT22;4919;48.792;9.202;2023-05-07T00:11:03;8.50;1.00
9760;DHT22;4919;48.792;9.202;2023-05-07T00:13:48;8.50;1.00
9760;DHT22;4919;48.792;9.202;2023-05-07T00:16:33;8.60;1.00
9760;DHT22;4919;48.792;9.202;2023-05-07T00:19:18;8.50;1.00
9760;DHT22;4919;48.792;9.202;2023-05-07T00:22:02;8.50;1.00
9760;DHT22;4919;48.792;9.202;2023-05-07T00:24:47;8.50;1.00
9760;DHT22;4919;48.792;9.202;2023-05-07T00:27:32;8.60;1.00
9760;DHT22;4919;48.792;9.202;2023-05-07T00:30:17;8.60;1.00
9760;DHT22;4919;48.792;9.202;2023-05-07T00:33:02;8.60;1.00
9760;DHT22;4919;48.792;9.202;2023-05-07T00:35:47;8.60;1.00
9760;DHT22;4919;48.792;9.202;2023-05-07T00:38:31;8.60;1.00
9760;DHT22;4919;48.792;9.202;2023-05-07T00:41:16;8.60;1.00
9760;DHT22;4919;48.792;9.202;2023-05-07T00:44:01;8.60;1.00
9760;DHT22;4919;48.792;9.202;2023-05-07T00:46:46;8.60;1.00
9760;DHT22;4919;48.792;9.202;2023-05-07T00:49:38;8.60;1.00
9760;DHT22;4919;48.792;9.202;2023-05-07T00:52:25;8.60;1.00
9760;DHT22;4919;48.792;9.202;2023-05-07T00:55:10;8.60;1.00
9760;DHT22;4919;48.792;9.202;2023-05-07T00:57:55;8.60;1.00
9760;DHT22;4919;48.792;9.202;2023-05-07T01:00:40;8.60;1.00
9760;DHT22;4919;48.792;9.202;2023-05-07T01:03:25;8.60;1.00
9760;DHT22;4919;48.792;9.202;2023-05-07T01:06:10;8.60;1.00
9760;DHT22;4919;48.792;9.202;2023-05-07T01:08:56;8.60;1.00
9760;DHT22;4919;48.792;9.202;2023-05-07T01:11:42;8.60;1.00
9760;DHT22;4919;48.792;9.202;2023-05-07T01:14:27;8.60;1.00
9760;DHT22;4919;48.792;9.202;2023-05-07T01:17:11;8.60;1.00
9760;DHT22;4919;48.792;9.202;2023-05-07T01:19:56;8.50;1.00
9760;DHT22;4919;48.792;9.202;2023-05-07T01:22:43;8.60;1.00
9760;DHT22;4919;48.792;9.202;2023-05-07T01:25:28;8.60;1.00
9760;DHT22;4919;48.792;9.202;2023-05-07T01:28:13;8.60;1.00
9760;DHT22;4919;48.792;9.202;2023-05-07T01:31:02;8.50;1.00
9760;DHT22;4919;48.792;9.202;2023-05-07T01:33:48;8.50;1.00
9760;DHT22;4919;48.792;9.202;2023-05-07T01:36:34;8.60;1.00
9760;DHT22;4919;48.792;9.202;2023-05-07T01:39:24;8.60;1.00
9760;DHT22;4919;48.792;9.202;2023-05-07T01:42:09;8.60;1.00
9760;DHT22;4919;48.792;9.202;2023-05-07T01:44:54;8.50;1.00
9760;DHT22;4919;48.792;9.202;2023-05-07T01:47:39;8.50;1.00
9760;DHT22;4919;48.792;9.202;2023-05-07T01:50:25;8.60;1.00
9760;DHT22;4919;48.792;9.202;2023-05-07T01:53:10;8.60;1.00
9760;DHT22;4919;48.792;9.202;2023-05-07T01:55:55;8.50;1.00
9760;DHT22;4919;48.792;9.202;2023-05-07T01:58:40;8.50;1.00
9760;DHT22;4919;48.792;9.202;2023-05-07T02:01:25;8.50;1.00
9760;DHT22;4919;48.792;9.202;2023-05-07T02:04:09;8.50;1.00
9760;DHT22;4919;48.792;9.202;2023-05-07T02:06:54;8.50;1.00
9760;DHT22;4919;48.792;9.202;2023-05-07T02:09:39;8.50;1.00
9760;DHT22;4919;48.792;9.202;2023-05-07T02:12:24;8.50;1.00
9760;DHT22;4919;48.792;9.202;2023-05-07T02:15:09;8.50;1.00
9760;DHT22;4919;48.792;9.202;2023-05-07T02:18:05;8.50;1.00
9760;DHT22;4919;48.792;9.202;2023-05-07T02:20:50;8.50;1.00
9760;DHT22;4919;48.792;9.202;2023-05-07T02:23:35;8.50;1.00
9760;DHT22;4919;48.792;9.202;2023-05-07T02:26:20;8.50;1.00
9760;DHT22;4919;48.792;9.202;2023-05-07T02:29:05;8.50;1.00
9760;DHT22;4919;48.792;9.202;2023-05-07T02:31:50;8.50;1.00
9760;DHT22;4919;48.792;9.202;2023-05-07T02:34:35;8.50;1.00
9760;DHT22;4919;48.792;9.202;2023-05-07T02:37:19;8.50;1.00
9760;DHT22;4919;48.792;9.202;2023-05-07T02:40:05;8.50;1.00
9760;DHT22;4919;48.792;9.202;2023-05-07T02:42:50;8.50;1.00
9760;DHT22;4919;48.792;9.202;2023-05-07T02:45:35;8.50;99.90
9760;DHT22;4919;48.792;9.202;2023-05-07T02:48:20;8.50;99.90
9760;DHT22;4919;48.792;9.202;2023-05-07T02:51:05;8.50;99.90
9760;DHT22;4919;48.792;9.202;2023-05-07T02:53:49;8.50;1.00
9760;DHT22;4919;48.792;9.202;2023-05-07T02:56:34;8.50;99.90
9760;DHT22;4919;48.792;9.202;2023-05-07T02:59:19;8.50;99.90
9760;DHT22;4919;48.792;9.202;2023-05-07T03:02:04;8.50;99.90
9760;DHT22;4919;48.792;9.202;2023-05-07T03:04:49;8.50;99.90
9760;DHT22;4919;48.792;9.202;2023-05-07T03:07:35;8.50;99.90
9760;DHT22;4919;48.792;9.202;2023-05-07T03:10:20;8.50;99.90
9760;DHT22;4919;48.792;9.202;2023-05-07T03:13:04;8.50;99.90
9760;DHT22;4919;48.792;9.202;2023-05-07T03:15:49;8.50;99.90
9760;DHT22;4919;48.792;9.202;2023-05-07T03:18:34;8.50;1.00
9760;DHT22;4919;48.792;9.202;2023-05-07T03:21:19;8.50;99.90
9760;DHT22;4919;48.792;9.202;2023-05-07T03:24:04;8.50;99.90
9760;DHT22;4919;48.792;9.202;2023-05-07T03:26:49;8.50;99.90
9760;DHT22;4919;48.792;9.202;2023-05-07T03:29:34;8.50;99.90
9760;DHT22;4919;48.792;9.202;2023-05-07T03:32:19;8.50;99.90
9760;DHT22;4919;48.792;9.202;2023-05-07T03:35:04;8.50;99.90
9760;DHT22;4919;48.792;9.202;2023-05-07T03:37:49;8.50;99.90
9760;DHT22;4919;48.792;9.202;2023-05-07T03:40:34;8.40;99.90
9760;DHT22;4919;48.792;9.202;2023-05-07T03:43:18;8.40;99.90
9760;DHT22;4919;48.792;9.202;2023-05-07T03:46:03;8.50;99.90
9760;DHT22;4919;48.792;9.202;2023-05-07T03:48:48;8.50;99.90
9760;DHT22;4919;48.792;9.202;2023-05-07T03:51:33;8.50;1.00
9760;DHT22;4919;48.792;9.202;2023-05-07T03:54:18;8.40;99.90
9760;DHT22;4919;48.792;9.202;2023-05-07T03:57:03;8.40;99.90
9760;DHT22;4919;48.792;9.202;2023-05-07T03:59:48;8.50;99.90
9760;DHT22;4919;48.792;9.202;2023-05-07T04:02:33;8.40;99.90
9760;DHT22;4919;48.792;9.202;2023-05-07T04:05:18;8.40;99.90
9760;DHT22;4919;48.792;9.202;2023-05-07T04:08:03;8.50;1.00
9760;DHT22;4919;48.792;9.202;2023-05-07T04:10:47;8.50;99.90
9760;DHT22;4919;48.792;9.202;2023-05-07T04:13:32;8.50;99.90
9760;DHT22;4919;48.792;9.202;2023-05-07T04:16:17;8.50;99.90
9760;DHT22;4919;48.792;9.202;2023-05-07T04:19:02;8.50;99.90
9760;DHT22;4919;48.792;9.202;2023-05-07T04:21:47;8.40;99.90
9760;DHT22;4919;48.792;9.202;2023-05-07T04:24:32;8.40;99.90
9760;DHT22;4919;48.792;9.202;2023-05-07T04:27:16;8.40;99.90
9760;DHT22;4919;48.792;9.202;2023-05-07T04:30:04;8.40;99.90
9760;DHT22;4919;48.792;9.202;2023-05-07T04:32:49;8.40;99.90
9760;DHT22;4919;48.792;9.202;2023-05-07T04:35:34;8.40;99.90
9760;DHT22;4919;48.792;9.202;2023-05-07T04:38:19;8.40;99.90
9760;DHT22;4919;48.792;9.202;2023-05-07T04:41:05;8.40;99.90
9760;DHT22;4919;48.792;9.202;2023-05-07T04:43:50;8.40;99.90
9760;DHT22;4919;48.792;9.202;2023-05-07T04:46:35;8.50;99.90
9760;DHT22;4919;48.792;9.202;2023-05-07T04:49:20;8.50;99.90
9760;DHT22;4919;48.792;9.202;2023-05-07T04:52:05;8.50;99.90
9760;DHT22;4919;48.792;9.202;2023-05-07T04:54:50;8.60;99.90
9760;DHT22;4919;48.792;9.202;2023-05-07T04:57:35;8.60;99.90
9760;DHT22;4919;48.792;9.202;2023-05-07T05:00:20;8.50;99.90
9760;DHT22;4919;48.792;9.202;2023-05-07T05:03:08;8.60;99.90
9760;DHT22;4919;48.792;9.202;2023-05-07T05:05:53;8.60;99.90
9760;DHT22;4919;48.792;9.202;2023-05-07T05:08:37;8.60;99.90
9760;DHT22;4919;48.792;9.202;2023-05-07T05:11:22;8.60;99.90
9760;DHT22;4919;48.792;9.202;2023-05-07T05:14:07;8.60;99.90
9760;DHT22;4919;48.792;9.202;2023-05-07T05:16:52;8.60;99.90
9760;DHT22;4919;48.792;9.202;2023-05-07T05:19:37;8.60;99.90
9760;DHT22;4919;48.792;9.202;2023-05-07T05:22:22;8.70;99.90
9760;DHT22;4919;48.792;9.202;2023-05-07T05:25:07;8.70;99.90
9760;DHT22;4919;48.792;9.202;2023-05-07T05:27:51;8.70;99.90
9760;DHT22;4919;48.792;9.202;2023-05-07T05:30:36;8.70;99.90
9760;DHT22;4919;48.792;9.202;2023-05-07T05:33:21;8.80;99.90
9760;DHT22;4919;48.792;9.202;2023-05-07T05:36:09;8.80;99.90
9760;DHT22;4919;48.792;9.202;2023-05-07T05:38:55;8.80;99.90
9760;DHT22;4919;48.792;9.202;2023-05-07T05:41:40;8.80;99.90
9760;DHT22;4919;48.792;9.202;2023-05-07T05:44:25;8.90;99.90
9760;DHT22;4919;48.792;9.202;2023-05-07T05:47:09;8.90;99.90
9760;DHT22;4919;48.792;9.202;2023-05-07T05:49:54;9.00;99.90
9760;DHT22;4919;48.792;9.202;2023-05-07T05:52:39;9.10;99.90
9760;DHT22;4919;48.792;9.202;2023-05-07T05:55:24;9.00;99.90
9760;DHT22;4919;48.792;9.202;2023-05-07T05:58:09;9.10;99.90
9760;DHT22;4919;48.792;9.202;2023-05-07T06:00:54;9.10;99.90
9760;DHT22;4919;48.792;9.202;2023-05-07T06:03:39;9.20;99.90
9760;DHT22;4919;48.792;9.202;2023-05-07T06:06:24;9.30;99.90
9760;DHT22;4919;48.792;9.202;2023-05-07T06:09:09;9.30;99.90
9760;DHT22;4919;48.792;9.202;2023-05-07T06:11:53;9.40;99.90
9760;DHT22;4919;48.792;9.202;2023-05-07T06:14:38;9.30;99.90
9760;DHT22;4919;48.792;9.202;2023-05-07T06:17:23;9.30;99.90
9760;DHT22;4919;48.792;9.202;2023-05-07T06:20:08;9.50;99.90
9760;DHT22;4919;48.792;9.202;2023-05-07T06:22:53;9.50;99.90
9760;DHT22;4919;48.792;9.202;2023-05-07T06:25:38;9.50;99.90
9760;DHT22;4919;48.792;9.202;2023-05-07T06:28:23;9.50;99.90
9760;DHT22;4919;48.792;9.202;2023-05-07T06:31:15;9.60;99.90
9760;DHT22;4919;48.792;9.202;2023-05-07T06:34:00;9.70;99.90
9760;DHT22;4919;48.792;9.202;2023-05-07T06:36:45;9.70;99.90
9760;DHT22;4919;48.792;9.202;2023-05-07T06:39:30;9.80;99.90
9760;DHT22;4919;48.792;9.202;2023-05-07T06:42:15;9.80;99.90
9760;DHT22;4919;48.792;9.202;2023-05-07T06:44:59;9.70;99.90
9760;DHT22;4919;48.792;9.202;2023-05-07T06:47:44;9.70;99.90
9760;DHT22;4919;48.792;9.202;2023-05-07T06:50:29;9.50;99.90
9760;DHT22;4919;48.792;9.202;2023-05-07T06:53:14;9.50;99.90
9760;DHT22;4919;48.792;9.202;2023-05-07T06:55:59;9.60;99.90
9760;DHT22;4919;48.792;9.202;2023-05-07T06:58:44;9.60;99.90
9760;DHT22;4919;48.792;9.202;2023-05-07T07:01:29;9.60;99.90
9760;DHT22;4919;48.792;9.202;2023-05-07T07:04:14;9.60;99.90
9760;DHT22;4919;48.792;9.202;2023-05-07T07:06:58;9.70;99.90
9760;DHT22;4919;48.792;9.202;2023-05-07T07:09:43;9.70;99.90
9760;DHT22;4919;48.792;9.202;2023-05-07T07:12:28;9.70;99.90
9760;DHT22;4919;48.792;9.202;2023-05-07T07:15:13;10.00;99.90
9760;DHT22;4919;48.792;9.202;2023-05-07T07:17:58;9.90;99.90
9760;DHT22;4919;48.792;9.202;2023-05-07T07:20:43;9.90;99.90
9760;DHT22;4919;48.792;9.202;2023-05-07T07:23:28;10.10;99.90
9760;DHT22;4919;48.792;9.202;2023-05-07T07:26:12;10.10;84.20
9760;DHT22;4919;48.792;9.202;2023-05-07T07:28:57;10.00;70.80
9760;DHT22;4919;48.792;9.202;2023-05-07T07:31:42;10.20;70.60
9760;DHT22;4919;48.792;9.202;2023-05-07T07:34:27;10.30;46.50
9760;DHT22;4919;48.792;9.202;2023-05-07T07:37:12;10.30;38.40
9760;DHT22;4919;48.792;9.202;2023-05-07T07:39:57;10.20;52.20
9760;DHT22;4919;48.792;9.202;2023-05-07T07:42:42;10.20;48.30
9760;DHT22;4919;48.792;9.202;2023-05-07T07:45:27;10.40;72.70
9760;DHT22;4919;48.792;9.202;2023-05-07T07:48:12;10.40;32.50
9760;DHT22;4919;48.792;9.202;2023-05-07T07:50:56;10.70;52.90
9760;DHT22;4919;48.792;9.202;2023-05-07T07:53:41;10.90;28.00
9760;DHT22;4919;48.792;9.202;2023-05-07T07:56:26;11.10;28.20
9760;DHT22;4919;48.792;9.202;2023-05-07T07:59:11;11.30;21.60
9760;DHT22;4919;48.792;9.202;2023-05-07T08:01:56;11.50;7.10
9760;DHT22;4919;48.792;9.202;2023-05-07T08:04:40;11.60;1.00
9760;DHT22;4919;48.792;9.202;2023-05-07T08:07:25;11.80;1.00
9760;DHT22;4919;48.792;9.202;2023-05-07T08:10:10;12.00;1.00
9760;DHT22;4919;48.792;9.202;2023-05-07T08:12:55;12.10;1.00
9760;DHT22;4919;48.792;9.202;2023-05-07T08:15:40;12.30;1.00
9760;DHT22;4919;48.792;9.202;2023-05-07T08:18:25;12.30;1.00
9760;DHT22;4919;48.792;9.202;2023-05-07T08:21:10;12.30;1.00
9760;DHT22;4919;48.792;9.202;2023-05-07T08:23:55;12.60;1.00
9760;DHT22;4919;48.792;9.202;2023-05-07T08:26:40;12.50;1.00
9760;DHT22;4919;48.792;9.202;2023-05-07T08:29:25;12.60;1.00
9760;DHT22;4919;48.792;9.202;2023-05-07T08:32:10;12.70;1.00
9760;DHT22;4919;48.792;9.202;2023-05-07T08:34:55;12.80;1.00
9760;DHT22;4919;48.792;9.202;2023-05-07T08:37:40;12.80;1.00
9760;DHT22;4919;48.792;9.202;2023-05-07T08:40:26;12.60;1.00
9760;DHT22;4919;48.792;9.202;2023-05-07T08:43:14;12.60;1.00
9760;DHT22;4919;48.792;9.202;2023-05-07T08:46:01;12.60;1.00
9760;DHT22;4919;48.792;9.202;2023-05-07T08:48:48;13.00;1.00
9760;DHT22;4919;48.792;9.202;2023-05-07T08:51:34;12.50;1.00
9760;DHT22;4919;48.792;9.202;2023-05-07T08:54:20;12.60;1.00
9760;DHT22;4919;48.792;9.202;2023-05-07T08:57:05;12.70;1.00
9760;DHT22;4919;48.792;9.202;2023-05-07T08:59:50;12.50;1.00
9760;DHT22;4919;48.792;9.202;2023-05-07T09:02:36;12.60;1.00
9760;DHT22;4919;48.792;9.202;2023-05-07T09:05:21;12.40;1.00
9760;DHT22;4919;48.792;9.202;2023-05-07T09:08:07;12.50;1.00
9760;DHT22;4919;48.792;9.202;2023-05-07T09:10:52;12.60;1.00
9760;DHT22;4919;48.792;9.202;2023-05-07T09:13:37;12.50;1.00
9760;DHT22;4919;48.792;9.202;2023-05-07T09:16:22;12.70;1.00
9760;DHT22;4919;48.792;9.202;2023-05-07T09:19:07;13.30;1.00
9760;DHT22;4919;48.792;9.202;2023-05-07T09:22:02;13.80;1.00
9760;DHT22;4919;48.792;9.202;2023-05-07T09:24:51;13.70;1.00
9760;DHT22;4919;48.792;9.202;2023-05-07T09:27:36;13.50;1.00
9760;DHT22;4919;48.792;9.202;2023-05-07T09:30:21;13.80;1.00
9760;DHT22;4919;48.792;9.202;2023-05-07T09:33:05;13.90;1.00
9760;DHT22;4919;48.792;9.202;2023-05-07T09:35:53;13.90;1.00
9760;DHT22;4919;48.792;9.202;2023-05-07T09:38:38;13.80;1.00
9760;DHT22;4919;48.792;9.202;2023-05-07T09:41:24;13.60;1.00
9760;DHT22;4919;48.792;9.202;2023-05-07T09:44:09;14.20;1.00
9760;DHT22;4919;48.792;9.202;2023-05-07T09:46:54;14.50;1.00
9760;DHT22;4919;48.792;9.202;2023-05-07T09:49:39;14.10;1.00
9760;DHT22;4919;48.792;9.202;2023-05-07T09:52:26;14.50;1.00
9760;DHT22;4919;48.792;9.202;2023-05-07T09:55:12;14.80;1.00
9760;DHT22;4919;48.792;9.202;2023-05-07T09:57:57;14.70;1.00
9760;DHT22;4919;48.792;9.202;2023-05-07T10:00:43;14.30;1.00
9760;DHT22;4919;48.792;9.202;2023-05-07T10:03:29;14.10;1.00
9760;DHT22;4919;48.792;9.202;2023-05-07T10:06:16;13.70;1.00
9760;DHT22;4919;48.792;9.202;2023-05-07T10:09:02;13.40;1.00
9760;DHT22;4919;48.792;9.202;2023-05-07T10:11:49;13.40;1.00
9760;DHT22;4919;48.792;9.202;2023-05-07T10:14:34;13.50;1.00
9760;DHT22;4919;48.792;9.202;2023-05-07T10:17:19;13.60;1.00
9760;DHT22;4919;48.792;9.202;2023-05-07T10:20:05;14.40;1.00
9760;DHT22;4919;48.792;9.202;2023-05-07T10:22:52;14.70;1.00
9760;DHT22;4919;48.792;9.202;2023-05-07T10:25:38;13.90;1.00
9760;DHT22;4919;48.792;9.202;2023-05-07T10:28:24;13.90;1.00
9760;DHT22;4919;48.792;9.202;2023-05-07T10:34:41;14.10;1.00
9760;DHT22;4919;48.792;9.202;2023-05-07T10:37:27;14.10;1.00
9760;DHT22;4919;48.792;9.202;2023-05-07T10:40:13;13.90;1.00
9760;DHT22;4919;48.792;9.202;2023-05-07T10:43:00;13.90;1.00
9760;DHT22;4919;48.792;9.202;2023-05-07T10:46:13;14.00;1.00
9760;DHT22;4919;48.792;9.202;2023-05-07T10:55:20;14.40;1.00
9760;DHT22;4919;48.792;9.202;2023-05-07T10:58:24;14.30;1.00
9760;DHT22;4919;48.792;9.202;2023-05-07T11:01:09;14.70;1.00
9760;DHT22;4919;48.792;9.202;2023-05-07T11:04:16;14.50;1.00
9760;DHT22;4919;48.792;9.202;2023-05-07T11:15:35;17.00;1.00
9760;DHT22;4919;48.792;9.202;2023-05-07T11:18:20;16.70;1.00
9760;DHT22;4919;48.792;9.202;2023-05-07T11:21:05;16.30;1.00
9760;DHT22;4919;48.792;9.202;2023-05-07T11:27:01;15.60;1.00
9760;DHT22;4919;48.792;9.202;2023-05-07T11:29:47;15.90;1.00
9760;DHT22;4919;48.792;9.202;2023-05-07T11:32:32;16.00;1.00
9760;DHT22;4919;48.792;9.202;2023-05-07T11:35:17;16.40;1.00
9760;DHT22;4919;48.792;9.202;2023-05-07T11:38:02;16.50;1.00
9760;DHT22;4919;48.792;9.202;2023-05-07T11:40:56;17.00;1.00
9760;DHT22;4919;48.792;9.202;2023-05-07T11:43:57;16.60;1.00
9760;DHT22;4919;48.792;9.202;2023-05-07T11:46:43;16.60;1.00
9760;DHT22;4919;48.792;9.202;2023-05-07T11:49:28;16.10;1.00
9760;DHT22;4919;48.792;9.202;2023-05-07T11:52:13;16.00;1.00
9760;DHT22;4919;48.792;9.202;2023-05-07T11:54:59;15.60;1.00
9760;DHT22;4919;48.792;9.202;2023-05-07T11:57:44;15.60;1.00
9760;DHT22;4919;48.792;9.202;2023-05-07T12:00:29;15.20;1.00
9760;DHT22;4919;48.792;9.202;2023-05-07T12:03:14;14.90;1.00
9760;DHT22;4919;48.792;9.202;2023-05-07T12:05:59;14.90;1.00
9760;DHT22;4919;48.792;9.202;2023-05-07T12:08:45;15.10;1.00
9760;DHT22;4919;48.792;9.202;2023-05-07T12:11:30;15.20;1.00
9760;DHT22;4919;48.792;9.202;2023-05-07T12:14:15;15.80;1.00
9760;DHT22;4919;48.792;9.202;2023-05-07T12:17:00;16.00;1.00
9760;DHT22;4919;48.792;9.202;2023-05-07T12:19:45;16.10;1.00
9760;DHT22;4919;48.792;9.202;2023-05-07T12:22:30;16.20;1.00
9760;DHT22;4919;48.792;9.202;2023-05-07T12:25:19;16.10;1.00
9760;DHT22;4919;48.792;9.202;2023-05-07T12:28:04;16.10;1.00
9760;DHT22;4919;48.792;9.202;2023-05-07T12:30:50;15.50;1.00
9760;DHT22;4919;48.792;9.202;2023-05-07T12:33:35;15.80;1.00
9760;DHT22;4919;48.792;9.202;2023-05-07T12:36:20;15.80;1.00
9760;DHT22;4919;48.792;9.202;2023-05-07T12:39:06;16.40;1.00
9760;DHT22;4919;48.792;9.202;2023-05-07T12:41:57;16.60;1.00
9760;DHT22;4919;48.792;9.202;2023-05-07T12:44:45;16.70;1.00
9760;DHT22;4919;48.792;9.202;2023-05-07T12:47:30;17.30;1.00
9760;DHT22;4919;48.792;9.202;2023-05-07T12:50:16;17.00;1.00
9760;DHT22;4919;48.792;9.202;2023-05-07T12:53:06;16.50;1.00
9760;DHT22;4919;48.792;9.202;2023-05-07T12:55:56;16.00;1.00
9760;DHT22;4919;48.792;9.202;2023-05-07T12:58:41;16.00;1.00
9760;DHT22;4919;48.792;9.202;2023-05-07T13:01:29;15.70;1.00
9760;DHT22;4919;48.792;9.202;2023-05-07T13:04:14;16.40;1.00
9760;DHT22;4919;48.792;9.202;2023-05-07T13:07:00;16.90;1.00
9760;DHT22;4919;48.792;9.202;2023-05-07T13:09:45;16.90;1.00
9760;DHT22;4919;48.792;9.202;2023-05-07T13:12:30;16.90;1.00
9760;DHT22;4919;48.792;9.202;2023-05-07T13:15:15;17.40;1.00
9760;DHT22;4919;48.792;9.202;2023-05-07T13:17:59;17.40;1.00
9760;DHT22;4919;48.792;9.202;2023-05-07T13:20:44;17.70;1.00
9760;DHT22;4919;48.792;9.202;2023-05-07T13:23:29;17.60;1.00
9760;DHT22;4919;48.792;9.202;2023-05-07T13:26:14;17.60;1.00
9760;DHT22;4919;48.792;9.202;2023-05-07T13:28:59;17.20;1.00
9760;DHT22;4919;48.792;9.202;2023-05-07T13:31:44;17.50;1.00
9760;DHT22;4919;48.792;9.202;2023-05-07T13:34:28;17.50;1.00
9760;DHT22;4919;48.792;9.202;2023-05-07T13:37:13;17.10;1.00
9760;DHT22;4919;48.792;9.202;2023-05-07T13:39:58;17.10;1.00
9760;DHT22;4919;48.792;9.202;2023-05-07T13:42:43;16.50;1.00
9760;DHT22;4919;48.792;9.202;2023-05-07T13:45:30;16.50;1.00
9760;DHT22;4919;48.792;9.202;2023-05-07T13:48:15;16.40;1.00
9760;DHT22;4919;48.792;9.202;2023-05-07T13:51:00;16.00;1.00
9760;DHT22;4919;48.792;9.202;2023-05-07T13:53:45;15.80;1.00
9760;DHT22;4919;48.792;9.202;2023-05-07T13:56:30;15.60;1.00
9760;DHT22;4919;48.792;9.202;2023-05-07T13:59:15;15.80;1.00
9760;DHT22;4919;48.792;9.202;2023-05-07T14:02:00;16.10;1.00
9760;DHT22;4919;48.792;9.202;2023-05-07T14:04:44;15.80;1.00
9760;DHT22;4919;48.792;9.202;2023-05-07T14:07:29;15.80;1.00
9760;DHT22;4919;48.792;9.202;2023-05-07T14:10:14;15.40;1.00
9760;DHT22;4919;48.792;9.202;2023-05-07T14:12:59;15.40;1.00
9760;DHT22;4919;48.792;9.202;2023-05-07T14:15:44;15.40;1.00
9760;DHT22;4919;48.792;9.202;2023-05-07T14:18:29;15.60;1.00
9760;DHT22;4919;48.792;9.202;2023-05-07T14:21:14;16.00;1.00
9760;DHT22;4919;48.792;9.202;2023-05-07T14:23:59;16.30;1.00
9760;DHT22;4919;48.792;9.202;2023-05-07T14:26:44;16.60;1.00
9760;DHT22;4919;48.792;9.202;2023-05-07T14:29:28;16.70;1.00
9760;DHT22;4919;48.792;9.202;2023-05-07T14:32:13;16.70;1.00
9760;DHT22;4919;48.792;9.202;2023-05-07T14:34:58;16.80;1.00
9760;DHT22;4919;48.792;9.202;2023-05-07T14:37:44;16.90;1.00
9760;DHT22;4919;48.792;9.202;2023-05-07T14:40:28;16.80;1.00
9760;DHT22;4919;48.792;9.202;2023-05-07T14:43:13;16.80;1.00
9760;DHT22;4919;48.792;9.202;2023-05-07T14:45:58;17.00;1.00
9760;DHT22;4919;48.792;9.202;2023-05-07T14:48:44;16.80;1.00
9760;DHT22;4919;48.792;9.202;2023-05-07T14:51:28;17.00;1.00
9760;DHT22;4919;48.792;9.202;2023-05-07T14:54:14;17.30;1.00
9760;DHT22;4919;48.792;9.202;2023-05-07T14:56:58;17.50;1.00
9760;DHT22;4919;48.792;9.202;2023-05-07T14:59:44;17.10;1.00
9760;DHT22;4919;48.792;9.202;2023-05-07T15:02:28;17.20;1.00
9760;DHT22;4919;48.792;9.202;2023-05-07T15:05:14;17.20;1.00
9760;DHT22;4919;48.792;9.202;2023-05-07T15:07:59;17.20;1.00
9760;DHT22;4919;48.792;9.202;2023-05-07T15:10:44;17.20;1.00
9760;DHT22;4919;48.792;9.202;2023-05-07T15:13:28;17.40;1.00
9760;DHT22;4919;48.792;9.202;2023-05-07T15:16:13;17.10;1.00
9760;DHT22;4919;48.792;9.202;2023-05-07T15:18:58;17.00;1.00
9760;DHT22;4919;48.792;9.202;2023-05-07T15:21:43;16.90;1.00
9760;DHT22;4919;48.792;9.202;2023-05-07T15:24:29;16.70;1.00
9760;DHT22;4919;48.792;9.202;2023-05-07T15:27:14;17.00;1.00
9760;DHT22;4919;48.792;9.202;2023-05-07T15:29:58;17.10;1.00
9760;DHT22;4919;48.792;9.202;2023-05-07T15:32:43;16.90;1.00
9760;DHT22;4919;48.792;9.202;2023-05-07T15:35:28;16.70;1.00
9760;DHT22;4919;48.792;9.202;2023-05-07T15:38:13;16.30;1.00
9760;DHT22;4919;48.792;9.202;2023-05-07T15:40:58;16.00;1.00
9760;DHT22;4919;48.792;9.202;2023-05-07T15:43:45;16.10;1.00
9760;DHT22;4919;48.792;9.202;2023-05-07T15:46:31;16.10;1.00
9760;DHT22;4919;48.792;9.202;2023-05-07T15:49:15;15.90;1.00
9760;DHT22;4919;48.792;9.202;2023-05-07T15:52:00;15.70;1.00
9760;DHT22;4919;48.792;9.202;2023-05-07T15:54:45;15.70;1.00
9760;DHT22;4919;48.792;9.202;2023-05-07T15:57:30;15.60;1.00
9760;DHT22;4919;48.792;9.202;2023-05-07T16:00:15;15.60;1.00
9760;DHT22;4919;48.792;9.202;2023-05-07T16:03:00;15.80;1.00
9760;DHT22;4919;48.792;9.202;2023-05-07T16:05:45;15.60;1.00
9760;DHT22;4919;48.792;9.202;2023-05-07T16:08:30;15.50;1.00
9760;DHT22;4919;48.792;9.202;2023-05-07T16:11:15;15.30;1.00
9760;DHT22;4919;48.792;9.202;2023-05-07T16:13:59;15.40;1.00
9760;DHT22;4919;48.792;9.202;2023-05-07T16:16:44;15.30;1.00
9760;DHT22;4919;48.792;9.202;2023-05-07T16:19:29;15.10;1.00
9760;DHT22;4919;48.792;9.202;2023-05-07T16:22:14;14.80;1.00
9760;DHT22;4919;48.792;9.202;2023-05-07T16:24:59;15.00;1.00
9760;DHT22;4919;48.792;9.202;2023-05-07T16:27:44;15.20;1.00
9760;DHT22;4919;48.792;9.202;2023-05-07T16:30:29;15.40;1.00
9760;DHT22;4919;48.792;9.202;2023-05-07T16:33:14;15.60;1.00
9760;DHT22;4919;48.792;9.202;2023-05-07T16:35:58;15.50;1.00
9760;DHT22;4919;48.792;9.202;2023-05-07T16:38:43;15.20;1.00
9760;DHT22;4919;48.792;9.202;2023-05-07T16:41:28;15.20;1.00
9760;DHT22;4919;48.792;9.202;2023-05-07T16:44:13;15.00;1.00
9760;DHT22;4919;48.792;9.202;2023-05-07T16:46:58;15.20;1.00
9760;DHT22;4919;48.792;9.202;2023-05-07T16:49:43;15.10;1.00
9760;DHT22;4919;48.792;9.202;2023-05-07T16:52:28;14.80;1.00
9760;DHT22;4919;48.792;9.202;2023-05-07T16:55:13;14.60;1.00
9760;DHT22;4919;48.792;9.202;2023-05-07T16:57:58;14.30;1.00
9760;DHT22;4919;48.792;9.202;2023-05-07T17:00:43;14.00;1.00
9760;DHT22;4919;48.792;9.202;2023-05-07T17:03:28;13.90;1.00
9760;DHT22;4919;48.792;9.202;2023-05-07T17:06:13;13.70;1.00
9760;DHT22;4919;48.792;9.202;2023-05-07T17:08:58;13.60;1.00
9760;DHT22;4919;48.792;9.202;2023-05-07T17:11:43;13.70;1.00
9760;DHT22;4919;48.792;9.202;2023-05-07T17:14:27;13.70;1.00
9760;DHT22;4919;48.792;9.202;2023-05-07T17:17:12;13.70;1.00
9760;DHT22;4919;48.792;9.202;2023-05-07T17:19:57;13.70;1.00
9760;DHT22;4919;48.792;9.202;2023-05-07T17:22:42;13.70;1.00
9760;DHT22;4919;48.792;9.202;2023-05-07T17:25:41;13.60;1.00
9760;DHT22;4919;48.792;9.202;2023-05-07T17:28:25;13.70;1.00
9760;DHT22;4919;48.792;9.202;2023-05-07T17:31:10;13.70;1.00
9760;DHT22;4919;48.792;9.202;2023-05-07T17:33:55;13.70;1.00
9760;DHT22;4919;48.792;9.202;2023-05-07T17:36:40;13.70;1.00
9760;DHT22;4919;48.792;9.202;2023-05-07T17:39:25;13.60;1.00
9760;DHT22;4919;48.792;9.202;2023-05-07T17:42:10;13.50;1.00
9760;DHT22;4919;48.792;9.202;2023-05-07T17:44:55;13.40;1.00
9760;DHT22;4919;48.792;9.202;2023-05-07T17:47:40;13.40;1.00
9760;DHT22;4919;48.792;9.202;2023-05-07T17:50:25;13.30;1.00
9760;DHT22;4919;48.792;9.202;2023-05-07T17:53:10;13.30;1.00
9760;DHT22;4919;48.792;9.202;2023-05-07T17:55:55;13.30;1.00
9760;DHT22;4919;48.792;9.202;2023-05-07T17:58:40;13.20;1.00
9760;DHT22;4919;48.792;9.202;2023-05-07T18:01:25;13.20;1.00
9760;DHT22;4919;48.792;9.202;2023-05-07T18:04:12;13.10;1.00
9760;DHT22;4919;48.792;9.202;2023-05-07T18:06:57;13.10;1.00
9760;DHT22;4919;48.792;9.202;2023-05-07T18:09:41;13.00;1.00
9760;DHT22;4919;48.792;9.202;2023-05-07T18:12:26;13.00;1.00
9760;DHT22;4919;48.792;9.202;2023-05-07T18:15:11;12.90;1.00
9760;DHT22;4919;48.792;9.202;2023-05-07T18:17:56;12.90;1.00
9760;DHT22;4919;48.792;9.202;2023-05-07T18:20:41;12.80;1.00
9760;DHT22;4919;48.792;9.202;2023-05-07T18:23:26;12.80;1.00
9760;DHT22;4919;48.792;9.202;2023-05-07T18:26:11;12.70;1.00
9760;DHT22;4919;48.792;9.202;2023-05-07T18:28:56;12.60;1.00
9760;DHT22;4919;48.792;9.202;2023-05-07T18:31:40;12.50;1.00
9760;DHT22;4919;48.792;9.202;2023-05-07T18:34:25;12.50;1.00
9760;DHT22;4919;48.792;9.202;2023-05-07T18:37:10;12.40;1.00
9760;DHT22;4919;48.792;9.202;2023-05-07T18:39:56;12.30;1.00